Time;durP1;ratioP1;P1;durP2;ratioP2;P2;SDS_P1;SDS_P2;PMS_P1;PMS_P2;Temp;Humidity;BMP_temperature;BMP_pressure;BME280_temperature;BME280_humidity;BME280_pressure;Samples;Min_cycle;Max_cycle;Signal;HPM_P1;HPM_P2
2022/06/02 00:01:27;;;;;;;7.07;6.38;;;;;;;9.54;76.16;101911.28;5023667;28;20038;-83
2022/06/02 00:04:26;;;;;;;8.02;7.05;;;;;;;9.47;76.82;101909.03;5037872;28;20081;-83
2022/06/02 00:07:03;;;;;;;;;;;;;;;9.59;74.01;101911.00;5092090;28;20056;-82
2022/06/02 00:09:54;;;;;;;12.05;7.40;;;;;;;9.47;76.16;101914.34;5037052;28;19909;-83
2022/06/02 00:12:28;;;;;;;7.90;7.10;;;;;;;9.41;76.81;101913.72;5036662;28;20049;-83
2022/06/02 00:15:00;;;;;;;7.95;6.97;;;;;;;9.39;77.20;101918.25;5037186;27;20036;-83
2022/06/02 00:17:49;;;;;;;7.63;6.93;;;;;;;9.41;76.92;101912.88;5030890;28;20033;-83
2022/06/02 00:20:20;;;;;;;8.40;7.57;;;;;;;9.38;76.87;101915.69;5037284;28;20014;-82
2022/06/02 00:22:52;;;;;;;7.93;7.13;;;;;;;9.32;76.53;101919.50;5036643;28;20021;-83
2022/06/02 00:25:28;;;;;;;8.00;7.20;;;;;;;9.29;77.00;101918.84;5036605;28;20083;-83
2022/06/02 00:28:31;;;;;;;8.98;8.07;;;;;;;9.26;76.76;101910.13;5036762;28;20029;-83
2022/06/02 00:31:02;;;;;;;9.43;7.32;;;;;;;9.19;77.49;101921.13;5027840;28;20042;-83
2022/06/02 00:33:36;;;;;;;9.02;7.22;;;;;;;9.11;77.56;101920.66;5037011;28;20018;-83
2022/06/02 00:36:08;;;;;;;8.30;7.10;;;;;;;9.06;77.61;101920.94;5036589;28;20046;-83
2022/06/02 00:38:39;;;;;;;9.40;7.18;;;;;;;9.12;77.52;101922.38;5036956;28;20018;-83
2022/06/02 00:41:07;;;;;;;7.90;7.18;;;;;;;9.06;77.60;101927.09;5023323;28;20097;-83
2022/06/02 00:43:47;;;;;;;9.90;7.40;;;;;;;8.98;77.70;101925.78;5038599;28;20028;-83
2022/06/02 00:46:24;;;;;;;8.52;7.72;;;;;;;8.98;77.28;101933.72;5023518;28;20029;-83
2022/06/02 00:49:14;;;;;;;8.63;7.80;;;;;;;8.90;77.50;101931.47;5040517;28;20036;-83
2022/06/02 00:52:13;;;;;;;7.85;7.10;;;;;;;8.92;76.89;101934.88;5027143;28;20049;-83
2022/06/02 00:57:57;;;;;;;10.63;8.07;;;;;;;8.75;77.14;101933.13;5036493;27;20036;-84
2022/06/02 01:00:33;;;;;;;8.80;7.90;;;;;;;8.73;77.03;101944.72;5016622;28;20182;-84
2022/06/02 01:03:11;;;;;;;7.82;7.03;;;;;;;8.72;76.80;101945.66;5033337;28;20022;-83
2022/06/02 01:05:48;;;;;;;8.43;7.47;;;;;;;8.67;77.21;101941.44;5035818;28;20018;-83
2022/06/02 01:08:33;;;;;;;8.40;7.50;;;;;;;8.69;77.20;101936.94;5032504;28;20021;-83
2022/06/02 01:11:12;;;;;;;7.88;7.18;;;;;;;8.66;77.29;101937.09;5036011;28;20021;-83
2022/06/02 01:13:49;;;;;;;8.40;7.60;;;;;;;8.62;77.54;101943.47;5035337;28;20018;-84
2022/06/02 01:16:21;;;;;;;8.13;7.32;;;;;;;8.63;77.85;101931.09;5039744;28;20092;-83
2022/06/02 01:19:11;;;;;;;8.55;6.95;;;;;;;8.63;77.46;101937.25;5036176;28;20033;-82
2022/06/02 01:22:14;;;;;;;8.38;7.55;;;;;;;8.62;77.30;101930.22;5035686;28;20018;-82
2022/06/02 01:24:51;;;;;;;9.30;8.00;;;;;;;8.54;77.53;101931.56;5035619;28;20018;-83
2022/06/02 01:27:42;;;;;;;8.18;7.30;;;;;;;8.52;77.76;101931.63;5024648;27;20039;-83
2022/06/02 01:30:16;;;;;;;8.15;7.35;;;;;;;8.48;77.68;101930.09;5035729;28;20040;-83
2022/06/02 01:33:00;;;;;;;8.95;8.05;;;;;;;8.42;77.27;101933.84;5042122;27;20026;-83
2022/06/02 01:35:49;;;;;;;9.57;7.07;;;;;;;8.33;77.91;101937.81;5031731;28;20011;-83
2022/06/02 01:38:25;;;;;;;8.52;7.13;;;;;;;8.29;77.71;101936.28;5016015;28;20014;-83
2022/06/02 01:41:03;;;;;;;7.30;6.65;;;;;;;8.26;77.47;101947.00;5041582;27;20046;-83
2022/06/02 01:43:36;;;;;;;8.27;7.22;;;;;;;8.22;78.01;101944.59;5026946;27;20101;-83
2022/06/02 01:46:34;;;;;;;8.10;7.35;;;;;;;8.25;77.66;101947.09;5035963;28;20048;-83
2022/06/02 01:49:20;;;;;;;10.50;8.00;;;;;;;8.19;77.88;101937.63;5018654;28;20030;-83
2022/06/02 01:52:33;;;;;;;8.20;7.40;;;;;;;8.18;77.12;101937.72;5035686;28;20018;-83
2022/06/02 01:55:20;;;;;;;7.82;7.03;;;;;;;8.09;77.22;101933.72;5117679;28;20020;-83
2022/06/02 01:58:12;;;;;;;8.82;7.30;;;;;;;8.05;77.31;101937.47;5035511;27;20033;-83
2022/06/02 02:00:37;;;;;;;7.97;7.18;;;;;;;8.00;77.52;101935.03;5017716;28;20019;-83
2022/06/02 02:03:28;;;;;;;8.60;7.70;;;;;;;7.97;77.41;101943.97;5035437;28;20075;-83
2022/06/02 02:06:06;;;;;;;8.30;7.50;;;;;;;7.92;77.82;101945.97;5035459;28;20014;-83
2022/06/02 02:09:02;;;;;;;9.43;7.63;;;;;;;7.92;77.65;101947.78;5035103;28;20088;-83
2022/06/02 02:11:54;;;;;;;9.35;8.43;;;;;;;7.88;77.46;101946.22;5024738;28;20014;-83
2022/06/02 02:15:18;;;;;;;9.38;8.50;;;;;;;7.92;76.98;101940.69;5038275;28;20112;-83
2022/06/02 02:18:18;;;;;;;11.10;9.55;;;;;;;7.85;77.32;101941.94;5040376;28;20064;-83
2022/06/02 02:21:03;;;;;;;12.10;10.80;;;;;;;7.82;77.26;101947.34;5038597;28;20030;-83
2022/06/02 02:23:39;;;;;;;11.93;10.73;;;;;;;7.80;78.05;101951.88;5026287;28;20017;-83
2022/06/02 02:26:18;;;;;;;12.13;10.75;;;;;;;7.81;77.63;101947.44;5024613;28;20050;-83
2022/06/02 02:29:17;;;;;;;12.02;10.35;;;;;;;7.80;77.58;101949.22;5027611;28;20026;-83
2022/06/02 02:32:15;;;;;;;12.48;11.23;;;;;;;7.79;77.81;101958.06;5038710;28;20053;-83
2022/06/02 02:35:06;;;;;;;12.48;11.05;;;;;;;7.74;77.78;101955.66;5038818;28;20010;-82
2022/06/02 02:37:39;;;;;;;12.65;11.35;;;;;;;7.65;78.26;101950.78;5038444;28;20006;-82
2022/06/02 02:40:31;;;;;;;11.65;10.45;;;;;;;7.69;77.66;101954.16;5034662;28;20034;-83
2022/06/02 02:43:19;;;;;;;14.02;11.50;;;;;;;7.65;77.98;101956.09;5038078;28;20042;-82
2022/06/02 02:46:08;;;;;;;12.23;10.80;;;;;;;7.67;77.44;101951.56;5027135;28;20024;-83
2022/06/02 02:49:01;;;;;;;12.93;11.48;;;;;;;7.61;78.16;101951.88;5025493;27;20033;-83
2022/06/02 02:51:45;;;;;;;13.93;12.15;;;;;;;7.63;78.21;101962.34;5045074;27;20049;-82
2022/06/02 02:54:36;;;;;;;15.43;12.55;;;;;;;7.54;78.71;101959.25;5018842;28;20070;-83
2022/06/02 02:57:24;;;;;;;14.48;11.77;;;;;;;7.52;78.53;101960.22;5043533;27;20061;-83
2022/06/02 03:00:14;;;;;;;13.35;11.85;;;;;;;7.47;78.71;101957.78;5038471;28;20022;-83
2022/06/02 03:03:02;;;;;;;13.38;12.05;;;;;;;7.45;78.23;101970.22;5025747;28;20026;-83
2022/06/02 03:05:43;;;;;;;12.32;11.05;;;;;;;7.36;78.44;101974.16;5038280;28;20018;-83
2022/06/02 03:08:31;;;;;;;13.55;11.38;;;;;;;7.39;78.56;101965.19;5038237;28;20037;-83
2022/06/02 03:11:08;;;;;;;17.70;12.23;;;;;;;7.39;78.32;101968.72;5032295;28;20020;-83
2022/06/02 03:13:45;;;;;;;13.10;11.85;;;;;;;7.37;78.40;101972.34;5031649;28;20026;-83
2022/06/02 03:16:12;;;;;;;13.63;12.15;;;;;;;7.31;78.40;101981.44;5045865;27;20014;-83
2022/06/02 03:18:51;;;;;;;14.57;13.02;;;;;;;7.32;78.01;101987.56;5037672;28;20021;-83
2022/06/02 03:21:44;;;;;;;15.15;13.65;;;;;;;7.32;78.01;101984.91;5034628;28;20023;-83
2022/06/02 03:24:35;;;;;;;13.40;12.00;;;;;;;7.29;77.87;101979.75;5031019;28;20082;-83
2022/06/02 03:27:10;;;;;;;16.17;12.52;;;;;;;7.22;78.43;101985.31;5026557;28;20018;-82
2022/06/02 03:29:56;;;;;;;14.23;12.68;;;;;;;7.19;78.80;101988.13;5042950;27;20029;-82
2022/06/02 03:32:47;;;;;;;14.77;13.27;;;;;;;7.16;78.71;101996.16;5038105;28;20014;-82
2022/06/02 03:35:22;;;;;;;14.90;12.55;;;;;;;7.14;78.61;101994.50;5037646;28;20098;-81
2022/06/02 03:38:03;;;;;;;17.73;13.35;;;;;;;7.11;78.85;102003.44;5037751;28;20036;-82
2022/06/02 03:40:33;;;;;;;16.05;13.75;;;;;;;7.14;78.75;102003.28;5030983;28;20030;-82
2022/06/02 03:42:58;;;;;;;;;;;;;;;7.26;77.13;102008.97;5039023;27;20029;-81
2022/06/02 03:45:42;;;;;;;15.05;13.52;;;;;;;7.15;78.78;101998.88;5038209;28;19930;-81
2022/06/02 03:48:21;;;;;;;17.17;14.30;;;;;;;7.12;78.98;102005.13;5046573;28;20017;-81
2022/06/02 03:51:01;;;;;;;18.67;15.38;;;;;;;7.10;79.31;102011.44;5025540;28;20018;-82
2022/06/02 03:53:50;;;;;;;19.92;16.50;;;;;;;7.12;79.56;102010.41;5036839;28;20030;-82
2022/06/02 03:56:33;;;;;;;17.35;15.20;;;;;;;7.13;79.13;102001.59;5032143;28;20029;-82
2022/06/02 03:59:24;;;;;;;16.75;14.95;;;;;;;7.15;78.67;102010.28;5037006;28;20018;-81
2022/06/02 04:02:00;;;;;;;17.35;15.02;;;;;;;7.12;79.62;102015.72;5037269;28;20018;-82
2022/06/02 04:04:49;;;;;;;17.80;15.88;;;;;;;7.13;79.44;102014.78;5036899;28;20034;-82
2022/06/02 04:07:35;;;;;;;18.50;16.35;;;;;;;7.11;80.26;102016.66;5037500;28;20006;-83
2022/06/02 04:10:31;;;;;;;17.60;15.68;;;;;;;7.15;79.90;102010.28;5029791;28;20038;-82
2022/06/02 04:16:19;;;;;;;;;;;;;;;7.26;78.00;102020.41;5037458;28;20097;-83
2022/06/02 04:18:56;;;;;;;18.30;16.08;;;;;;;7.18;80.10;102017.25;5018083;28;19901;-82
2022/06/02 04:22:01;;;;;;;16.58;14.75;;;;;;;7.19;80.49;102025.09;5037146;28;20022;-82
2022/06/02 04:24:40;;;;;;;19.55;17.38;;;;;;;7.19;80.89;102026.88;4999998;28;20038;-83
2022/06/02 04:27:20;;;;;;;20.77;18.40;;;;;;;7.22;81.05;102030.22;5037841;28;20027;-82
2022/06/02 04:30:01;;;;;;;19.45;17.27;;;;;;;7.25;81.51;102029.25;5040264;27;20018;-82
2022/06/02 04:33:04;;;;;;;20.40;18.23;;;;;;;7.32;80.47;102035.13;5037230;28;20025;-82
2022/06/02 04:35:45;;;;;;;23.45;19.10;;;;;;;7.36;81.40;102036.69;5024576;28;20038;-83
2022/06/02 04:38:31;;;;;;;21.58;19.23;;;;;;;7.37;81.88;102038.44;5037010;28;20022;-83
2022/06/02 04:41:26;;;;;;;20.85;18.75;;;;;;;7.45;81.48;102038.94;5025958;28;20047;-82
2022/06/02 04:44:50;;;;;;;21.23;19.02;;;;;;;7.54;81.52;102041.19;5010506;28;20029;-82
2022/06/02 04:47:51;;;;;;;22.27;20.00;;;;;;;7.64;81.29;102035.47;5016149;28;20033;-83
2022/06/02 04:50:25;;;;;;;25.95;20.65;;;;;;;7.73;82.13;102043.84;5011046;28;20037;-82
2022/06/02 04:53:16;;;;;;;24.15;21.55;;;;;;;7.83;81.64;102048.72;5029942;27;20084;-83
2022/06/02 04:55:54;;;;;;;26.15;23.42;;;;;;;7.93;82.36;102044.75;5034489;28;20028;-84
2022/06/02 04:58:32;;;;;;;26.33;23.52;;;;;;;8.08;82.26;102035.22;5036596;28;20025;-83
2022/06/02 05:01:35;;;;;;;26.98;23.58;;;;;;;8.24;81.75;102033.56;5023752;28;20018;-83
2022/06/02 05:04:22;;;;;;;26.95;24.02;;;;;;;8.41;82.14;102040.72;5037533;28;20047;-83
2022/06/02 05:06:59;;;;;;;25.95;23.15;;;;;;;8.57;82.30;102040.84;5036589;28;20018;-83
2022/06/02 05:09:45;;;;;;;26.48;23.83;;;;;;;8.72;81.47;102046.31;5023261;28;20026;-83
2022/06/02 05:12:45;;;;;;;29.90;25.92;;;;;;;8.80;82.02;102055.59;5036292;28;20025;-83
2022/06/02 05:15:42;;;;;;;29.20;26.15;;;;;;;8.83;82.72;102059.91;5028801;28;20014;-83
2022/06/02 05:18:39;;;;;;;29.02;26.08;;;;;;;8.92;81.75;102047.97;5035576;28;20040;-83
2022/06/02 05:21:23;;;;;;;27.55;24.50;;;;;;;8.94;82.04;102051.41;5036159;28;20017;-83
2022/06/02 05:24:05;;;;;;;26.95;24.15;;;;;;;9.03;81.72;102051.78;5035958;28;20103;-82
2022/06/02 05:26:52;;;;;;;28.02;25.15;;;;;;;9.10;82.06;102048.84;5035466;28;20018;-82
2022/06/02 05:29:27;;;;;;;28.73;25.83;;;;;;;9.25;81.96;102050.69;5036172;27;20050;-82
2022/06/02 05:32:16;;;;;;;28.35;25.33;;;;;;;9.45;82.13;102047.00;5036221;28;20030;-83
2022/06/02 05:35:14;;;;;;;27.92;24.98;;;;;;;9.69;81.00;102051.94;5035304;28;20042;-82
2022/06/02 05:38:11;;;;;;;27.00;24.27;;;;;;;9.92;80.39;102048.03;5019243;28;20030;-82
2022/06/02 05:40:45;;;;;;;28.15;25.15;;;;;;;10.11;79.63;102042.59;5024016;28;20106;-82
2022/06/02 05:43:38;;;;;;;27.80;24.90;;;;;;;10.38;78.96;102044.69;5035857;28;20025;-83
2022/06/02 05:46:51;;;;;;;26.33;23.63;;;;;;;10.65;78.38;102044.91;5034344;28;20042;-83
2022/06/02 05:49:35;;;;;;;27.42;24.67;;;;;;;10.91;78.88;102046.88;4995213;28;20038;-83
2022/06/02 05:52:12;;;;;;;29.77;25.92;;;;;;;11.19;79.07;102052.38;4995699;28;20042;-83
2022/06/02 05:55:06;;;;;;;29.90;25.33;;;;;;;11.47;78.35;102056.88;5018257;28;20041;-80
2022/06/02 05:57:37;;;;;;;30.08;25.88;;;;;;;11.70;77.97;102057.28;5028401;28;20022;-84
2022/06/02 06:00:15;;;;;;;28.45;23.85;;;;;;;11.97;77.32;102057.38;5035726;28;20071;-84
2022/06/02 06:03:09;;;;;;;27.15;23.40;;;;;;;12.20;76.47;102058.59;5022988;28;20030;-83
2022/06/02 06:05:53;;;;;;;26.50;21.90;;;;;;;12.52;75.44;102066.28;5033658;28;20055;-83
2022/06/02 06:08:43;;;;;;;22.75;20.45;;;;;;;12.73;75.01;102066.72;5019363;28;20011;-82
2022/06/02 06:11:36;;;;;;;24.08;21.58;;;;;;;13.06;73.68;102070.75;5029549;28;20082;-83
2022/06/02 06:14:18;;;;;;;21.70;19.40;;;;;;;13.27;72.60;102071.06;5019045;28;20060;-82
2022/06/02 06:16:56;;;;;;;19.48;17.17;;;;;;;13.52;70.65;102072.94;5035095;28;20035;-82
2022/06/02 06:19:49;;;;;;;19.17;17.13;;;;;;;13.75;70.33;102084.69;5028782;28;20026;-84
2022/06/02 06:22:43;;;;;;;19.65;17.15;;;;;;;14.01;70.67;102084.66;5033621;28;20010;-83
2022/06/02 06:25:30;;;;;;;19.15;16.55;;;;;;;14.23;69.18;102089.31;5031717;28;20055;-83
2022/06/02 06:28:09;;;;;;;19.02;17.02;;;;;;;14.45;68.04;102091.28;5034190;28;20014;-83
2022/06/02 06:31:03;;;;;;;18.85;16.38;;;;;;;14.72;69.11;102087.56;5033563;28;20033;-81
2022/06/02 06:33:48;;;;;;;23.05;16.35;;;;;;;14.98;68.33;102080.25;5033384;28;20018;-81
2022/06/02 06:36:32;;;;;;;20.90;15.18;;;;;;;15.25;67.06;102090.69;5034421;28;20045;-84
2022/06/02 06:39:16;;;;;;;17.38;15.57;;;;;;;15.44;65.74;102089.28;5025557;28;20014;-83
2022/06/02 06:42:10;;;;;;;15.88;14.27;;;;;;;15.72;65.48;102088.81;5032490;28;20030;-84
2022/06/02 06:44:39;;;;;;;16.02;14.32;;;;;;;16.02;64.00;102091.88;5034488;28;20029;-83
2022/06/02 06:47:21;;;;;;;14.07;12.52;;;;;;;16.28;62.51;102095.16;5033516;28;20061;-82
2022/06/02 06:49:57;;;;;;;15.43;12.55;;;;;;;16.51;63.45;102095.13;5026912;28;20038;-83
2022/06/02 06:52:44;;;;;;;13.65;12.20;;;;;;;16.72;61.50;102103.22;5028901;28;20014;-83
2022/06/02 06:55:33;;;;;;;12.85;11.20;;;;;;;16.99;59.52;102108.16;5033706;28;20071;-82
2022/06/02 06:58:13;;;;;;;12.93;11.50;;;;;;;17.25;59.71;102102.41;5036853;28;20029;-82
2022/06/02 07:00:47;;;;;;;13.88;11.98;;;;;;;17.31;57.98;102110.78;5036857;28;20026;-82
2022/06/02 07:03:34;;;;;;;13.43;11.55;;;;;;;17.64;57.67;102102.66;5036834;28;20042;-82
2022/06/02 07:06:38;;;;;;;11.30;10.23;;;;;;;17.81;58.99;102109.25;5033435;28;20025;-83
2022/06/02 07:09:28;;;;;;;11.85;10.40;;;;;;;18.10;57.09;102106.69;5049470;28;20042;-82
2022/06/02 07:15:17;;;;;;;6.93;6.22;;;;;;;18.54;53.71;102106.41;5025959;28;20053;-82
2022/06/02 07:17:52;;;;;;;6.78;6.00;;;;;;;18.72;52.46;102110.13;5026787;28;20010;-81
2022/06/02 07:20:37;;;;;;;7.07;6.13;;;;;;;18.96;53.23;102117.81;5026423;28;20056;-83
2022/06/02 07:23:07;;;;;;;6.43;5.57;;;;;;;18.98;50.14;102114.97;5047708;27;20017;-81
2022/06/02 07:25:51;;;;;;;4.55;4.05;;;;;;;18.93;51.04;102119.94;5037805;28;20014;-82
2022/06/02 07:28:54;;;;;;;6.45;5.85;;;;;;;18.80;51.57;102121.03;5037605;28;20036;-82
2022/06/02 07:32:02;;;;;;;6.75;6.10;;;;;;;19.06;52.27;102125.88;5038676;27;20022;-82
2022/06/02 07:34:46;;;;;;;6.57;5.88;;;;;;;19.30;46.88;102122.75;5036483;28;20025;-82
2022/06/02 07:37:54;;;;;;;7.07;5.95;;;;;;;19.67;50.69;102124.66;5033109;28;20018;-82
2022/06/02 07:40:41;;;;;;;6.50;5.90;;;;;;;19.98;49.90;102127.13;5018094;28;20049;-82
2022/06/02 07:43:34;;;;;;;7.10;6.40;;;;;;;19.88;49.02;102123.63;5038826;27;20018;-83
2022/06/02 07:46:29;;;;;;;7.50;6.80;;;;;;;20.17;49.68;102133.44;5037854;28;20018;-82
2022/06/02 07:49:16;;;;;;;6.78;6.07;;;;;;;20.13;49.48;102124.78;5041462;28;20030;-81
2022/06/02 07:51:51;;;;;;;7.47;6.50;;;;;;;19.97;48.78;102122.75;5033010;28;20033;-82
2022/06/02 07:54:23;;;;;;;7.47;6.70;;;;;;;20.05;46.87;102130.97;5035546;27;20018;-82
2022/06/02 07:57:04;;;;;;;9.52;6.35;;;;;;;20.38;48.76;102125.94;5035053;28;20010;-82
2022/06/02 08:00:07;;;;;;;6.30;5.70;;;;;;;20.78;48.58;102116.59;5024401;28;20010;-82
2022/06/02 08:03:10;;;;;;;5.93;5.43;;;;;;;21.00;47.07;102117.16;5033320;28;20045;-80
2022/06/02 08:05:48;;;;;;;5.45;4.93;;;;;;;21.18;45.70;102120.72;5037354;28;20014;-83
2022/06/02 08:08:29;;;;;;;5.50;5.00;;;;;;;21.56;45.83;102115.09;5026796;28;20024;-84
2022/06/02 08:11:14;;;;;;;5.22;4.75;;;;;;;21.81;44.67;102116.06;5032991;28;20106;-84
2022/06/02 08:13:53;;;;;;;5.30;4.40;;;;;;;22.12;43.88;102123.69;5039539;27;20012;-83
2022/06/02 08:16:37;;;;;;;;;;;;;;;22.41;45.95;102120.56;5037586;28;20025;-83
2022/06/02 08:19:41;;;;;;;4.68;4.20;;;;;;;22.52;44.64;102111.31;5037124;28;19934;-83
2022/06/02 08:22:12;;;;;;;6.85;4.47;;;;;;;22.65;39.45;102108.97;5042002;28;20064;-84
2022/06/02 08:24:49;;;;;;;5.13;4.30;;;;;;;22.85;41.76;102111.38;5036968;28;20022;-83
2022/06/02 08:27:38;;;;;;;4.00;3.35;;;;;;;23.02;38.73;102115.78;5016778;28;20014;-83
2022/06/02 08:30:13;;;;;;;4.40;3.97;;;;;;;23.07;38.63;102118.03;5020828;28;20037;-84
2022/06/02 08:33:04;;;;;;;7.35;4.10;;;;;;;22.91;38.99;102110.69;5028187;28;20024;-84
2022/06/02 08:35:43;;;;;;;4.82;4.35;;;;;;;23.07;39.68;102121.56;5035859;28;20018;-84
2022/06/02 08:38:27;;;;;;;6.72;4.60;;;;;;;23.22;38.58;102119.03;5033969;28;20018;-83
2022/06/02 08:41:29;;;;;;;5.72;5.22;;;;;;;23.28;40.79;102128.31;5036599;28;20110;-82
2022/06/02 08:44:34;;;;;;;8.90;5.18;;;;;;;23.62;40.28;102127.28;5030384;28;20045;-82
2022/06/02 08:47:33;;;;;;;5.55;5.05;;;;;;;23.46;38.27;102133.56;5072189;28;20026;-81
2022/06/02 08:50:46;;;;;;;5.35;4.50;;;;;;;23.81;39.66;102135.03;5031974;28;20030;-81
2022/06/02 08:53:39;;;;;;;5.25;4.47;;;;;;;23.80;38.80;102135.22;5040720;27;20013;-82
2022/06/02 08:56:33;;;;;;;5.53;5.03;;;;;;;23.83;38.90;102127.59;5030001;28;20025;-83
2022/06/02 08:59:34;;;;;;;6.00;4.35;;;;;;;23.85;37.86;102134.69;5020423;28;20037;-84
2022/06/02 09:02:42;;;;;;;4.75;4.30;;;;;;;23.94;38.47;102131.78;5036348;28;20022;-83
2022/06/02 09:05:38;;;;;;;5.38;4.90;;;;;;;23.85;38.65;102124.72;5040860;28;20035;-83
2022/06/02 09:08:43;;;;;;;5.63;4.95;;;;;;;23.89;39.42;102125.22;5035729;28;20038;-83
2022/06/02 09:11:27;;;;;;;5.85;5.32;;;;;;;24.00;38.17;102119.41;5027131;28;20039;-83
2022/06/02 09:14:20;;;;;;;6.32;4.45;;;;;;;24.33;37.79;102127.38;5036635;28;20100;-83
2022/06/02 09:16:58;;;;;;;4.50;4.10;;;;;;;24.46;37.97;102124.94;5035770;28;20076;-83
2022/06/02 09:19:38;;;;;;;5.15;4.13;;;;;;;24.33;36.77;102130.97;5035901;28;20026;-82
2022/06/02 09:22:15;;;;;;;4.25;3.85;;;;;;;24.76;36.92;102127.84;5037559;28;20040;-83
2022/06/02 09:25:06;;;;;;;4.97;4.57;;;;;;;25.01;37.60;102116.78;5032935;28;20026;-83
2022/06/02 09:28:13;;;;;;;4.68;4.25;;;;;;;25.13;37.05;102123.50;5025181;28;20018;-83
2022/06/02 09:31:11;;;;;;;5.10;4.30;;;;;;;25.20;35.70;102113.56;5044686;28;20065;-83
2022/06/02 09:34:07;;;;;;;4.85;4.30;;;;;;;25.40;36.87;102121.25;5026227;28;20043;-82
2022/06/02 09:36:57;;;;;;;4.10;3.80;;;;;;;25.64;35.32;102120.13;5025605;28;20038;-83
2022/06/02 09:39:34;;;;;;;5.10;4.60;;;;;;;25.50;33.37;102121.81;5027594;28;20038;-82
2022/06/02 09:42:24;;;;;;;4.72;4.25;;;;;;;25.71;35.09;102121.06;5034497;28;20060;-84
2022/06/02 09:45:01;;;;;;;4.70;4.30;;;;;;;25.45;33.46;102116.09;5034926;28;20018;-84
2022/06/02 09:47:49;;;;;;;5.13;4.60;;;;;;;25.09;33.65;102119.44;5018160;28;20042;-83
2022/06/02 09:50:27;;;;;;;6.00;4.72;;;;;;;25.03;34.47;102120.16;5028247;28;20086;-83
2022/06/02 09:52:52;;;;;;;4.82;4.43;;;;;;;24.62;32.61;102123.19;5026489;28;20108;-81
2022/06/02 09:55:37;;;;;;;4.93;4.15;;;;;;;24.79;35.30;102121.22;5030314;28;20022;-82
2022/06/02 09:58:41;;;;;;;6.05;4.45;;;;;;;25.18;35.63;102112.91;5020958;28;20064;-80
2022/06/02 10:01:19;;;;;;;4.50;3.90;;;;;;;25.24;34.06;102120.31;5096113;28;20013;-82
2022/06/02 10:04:01;;;;;;;4.82;4.43;;;;;;;25.27;34.43;102121.88;5093840;28;20047;-81
2022/06/02 10:06:48;;;;;;;4.78;4.38;;;;;;;25.55;34.87;102119.38;5062093;27;20045;-82
2022/06/02 10:09:32;;;;;;;5.95;5.30;;;;;;;25.37;32.44;102124.34;5032607;28;20044;-79
2022/06/02 10:15:03;;;;;;;5.60;4.47;;;;;;;25.73;34.28;102105.41;5037015;28;20073;-80
2022/06/02 10:17:56;;;;;;;5.35;4.78;;;;;;;25.74;33.78;102109.81;5025902;28;20032;-82
2022/06/02 10:20:41;;;;;;;4.60;4.13;;;;;;;25.77;34.01;102103.16;5025591;28;20034;-82
2022/06/02 10:23:41;;;;;;;5.07;4.18;;;;;;;26.04;33.68;102102.50;5043561;28;20037;-78
2022/06/02 10:26:31;;;;;;;4.75;3.40;;;;;;;26.22;30.20;102109.44;5030004;28;20059;-79
2022/06/02 10:29:21;;;;;;;4.28;3.20;;;;;;;26.11;32.19;102107.19;5036044;28;20038;-80
2022/06/02 10:32:07;;;;;;;3.80;3.50;;;;;;;26.30;29.00;102103.88;5028314;28;20038;-82
2022/06/02 10:35:20;;;;;;;3.95;3.60;;;;;;;26.79;32.10;102101.47;5038024;28;20053;-80
2022/06/02 10:37:54;;;;;;;3.85;3.55;;;;;;;26.93;30.69;102097.84;5076161;28;20053;-81
2022/06/02 10:40:54;;;;;;;4.72;3.80;;;;;;;26.99;32.09;102097.03;5036461;28;20094;-78
2022/06/02 10:43:47;;;;;;;5.22;4.72;;;;;;;26.91;31.99;102083.56;5026517;28;20054;-80
2022/06/02 10:46:38;;;;;;;4.03;3.72;;;;;;;26.74;29.69;102093.88;5037517;28;20014;-80
2022/06/02 10:49:33;;;;;;;4.30;3.90;;;;;;;27.05;30.98;102090.81;5051449;27;20090;-81
2022/06/02 10:52:36;;;;;;;3.72;3.25;;;;;;;27.23;30.96;102092.19;5090462;28;20055;-79
2022/06/02 10:55:32;;;;;;;4.38;3.65;;;;;;;27.19;30.31;102088.19;5034156;27;20047;-79
2022/06/02 10:58:55;;;;;;;5.97;4.15;;;;;;;27.32;30.49;102080.13;5036906;28;20034;-82
2022/06/02 11:01:36;;;;;;;4.82;4.43;;;;;;;26.82;28.09;102082.00;5097019;28;20016;-81
2022/06/02 11:04:39;;;;;;;4.20;3.83;;;;;;;27.09;30.93;102083.91;5100310;28;20139;-81
2022/06/02 11:07:31;;;;;;;4.07;3.78;;;;;;;27.39;31.67;102083.75;5030280;28;20033;-81
2022/06/02 11:10:24;;;;;;;3.60;3.30;;;;;;;27.71;29.98;102078.69;5037760;28;20030;-82
2022/06/02 11:12:55;;;;;;;3.65;3.30;;;;;;;27.63;27.51;102076.97;5036670;28;20054;-81
2022/06/02 11:15:58;;;;;;;6.13;3.33;;;;;;;27.56;30.59;102080.72;5037796;28;20070;-82
2022/06/02 11:19:04;;;;;;;4.47;4.07;;;;;;;27.34;29.68;102078.06;5025057;28;20037;-83
2022/06/02 11:21:54;;;;;;;5.10;4.68;;;;;;;26.74;28.99;102075.63;5038229;28;20014;-83
2022/06/02 11:25:08;;;;;;;4.05;3.65;;;;;;;26.82;31.29;102077.41;5031635;28;20014;-83
2022/06/02 11:28:11;;;;;;;4.90;4.50;;;;;;;26.38;30.95;102073.78;5090878;28;20038;-82
2022/06/02 11:31:02;;;;;;;3.97;3.67;;;;;;;26.34;30.78;102068.91;5029741;28;20022;-82
2022/06/02 11:33:52;;;;;;;4.20;3.90;;;;;;;26.39;30.51;102061.84;5032695;28;20033;-83
2022/06/02 11:36:32;;;;;;;4.55;3.67;;;;;;;26.50;30.52;102067.84;5029777;28;20022;-81
2022/06/02 11:39:16;;;;;;;4.28;3.88;;;;;;;26.56;30.38;102064.31;5029293;28;20094;-82
2022/06/02 11:42:02;;;;;;;3.95;3.65;;;;;;;26.36;30.21;102064.13;5028303;28;20042;-82
2022/06/02 11:45:07;;;;;;;4.30;3.95;;;;;;;26.55;30.08;102057.22;5033814;28;20042;-80
2022/06/02 11:48:00;;;;;;;4.60;3.90;;;;;;;26.38;30.26;102060.19;5033783;28;20090;-80
2022/06/02 11:50:36;;;;;;;4.78;4.07;;;;;;;26.18;29.16;102053.66;5022747;28;20010;-80
2022/06/02 11:53:30;;;;;;;5.68;4.35;;;;;;;26.36;30.01;102043.19;5027488;28;20263;-81
2022/06/02 11:56:08;;;;;;;4.38;3.95;;;;;;;26.34;29.50;102047.13;5029595;28;20010;-80
2022/06/02 11:59:00;;;;;;;5.40;4.90;;;;;;;26.30;29.28;102048.56;5031951;28;20107;-79
2022/06/02 12:01:32;;;;;;;4.32;3.72;;;;;;;26.13;30.17;102034.31;5025433;28;20139;-83
2022/06/02 12:04:18;;;;;;;4.18;3.88;;;;;;;26.29;30.93;102034.09;5039360;28;20040;-83
2022/06/02 12:07:08;;;;;;;6.80;3.80;;;;;;;26.32;30.32;102032.88;5034441;28;20040;-81
2022/06/02 12:09:40;;;;;;;5.05;3.40;;;;;;;26.12;30.14;102027.22;5036950;28;20094;-81
2022/06/02 12:12:41;;;;;;;3.58;3.28;;;;;;;26.21;29.89;102032.34;5036179;28;20042;-81
2022/06/02 12:15:16;;;;;;;5.07;3.40;;;;;;;25.98;28.87;102029.78;5032159;28;20034;-83
2022/06/02 12:18:26;;;;;;;5.60;3.40;;;;;;;25.95;29.44;102021.97;5023959;28;20082;-84
2022/06/02 12:21:29;;;;;;;3.45;3.15;;;;;;;26.01;30.11;102013.06;5040374;27;20061;-82
2022/06/02 12:24:20;;;;;;;4.78;3.22;;;;;;;25.66;30.05;102011.94;5026626;28;20038;-81
2022/06/02 12:27:24;;;;;;;3.97;3.55;;;;;;;25.29;30.33;102011.88;5020576;28;20038;-81
2022/06/02 12:29:58;;;;;;;3.35;3.05;;;;;;;24.91;30.10;102006.47;5138152;27;20020;-80
2022/06/02 12:32:53;;;;;;;3.83;3.50;;;;;;;24.91;31.27;102011.91;5044267;28;20042;-80
2022/06/02 12:35:38;;;;;;;4.10;3.70;;;;;;;24.54;30.92;102013.53;5034218;28;20039;-81
2022/06/02 12:38:15;;;;;;;4.13;3.83;;;;;;;24.26;31.13;102007.78;5019725;28;20038;-80
2022/06/02 12:41:05;;;;;;;3.45;3.15;;;;;;;24.35;32.79;101998.56;5032291;28;20084;-82
2022/06/02 12:44:08;;;;;;;3.45;3.15;;;;;;;24.40;32.43;102000.75;5027392;28;20030;-81
2022/06/02 12:47:15;;;;;;;5.35;3.15;;;;;;;24.30;33.85;101992.00;5034678;28;20038;-80
2022/06/02 12:50:09;;;;;;;3.47;3.17;;;;;;;24.22;32.80;101986.63;5060598;28;20053;-80
2022/06/02 12:52:56;;;;;;;5.47;3.25;;;;;;;24.07;33.10;101981.13;5028111;28;20028;-81
2022/06/02 12:56:02;;;;;;;5.13;4.13;;;;;;;24.00;32.88;101987.25;5034607;28;20089;-82
2022/06/02 12:58:43;;;;;;;4.10;3.70;;;;;;;23.57;31.84;101988.66;5135401;28;20043;-81
2022/06/02 13:01:48;;;;;;;4.30;3.90;;;;;;;23.50;33.08;101982.22;5137473;27;20084;-80
2022/06/02 13:04:39;;;;;;;4.22;3.42;;;;;;;23.28;32.29;101987.38;5050773;28;20085;-79
2022/06/02 13:07:23;;;;;;;4.47;4.07;;;;;;;23.12;32.97;101988.28;5034813;28;20053;-81
2022/06/02 13:09:48;;;;;;;4.93;4.55;;;;;;;22.91;31.99;101978.81;5032230;28;20030;-82